sensor_id;sensor_type;location;lat;lon;timestamp;P1;durP1;ratioP1;P2;durP2;ratioP2
8161;SDS011;16778;48.154;15.094;2023-12-28T00:01:26;14.00;;;8.27;;
8161;SDS011;16778;48.154;15.094;2023-12-28T00:03:52;13.40;;;8.47;;
8161;SDS011;16778;48.154;15.094;2023-12-28T00:06:17;14.10;;;7.93;;
8161;SDS011;16778;48.154;15.094;2023-12-28T00:08:43;14.10;;;8.33;;
8161;SDS011;16778;48.154;15.094;2023-12-28T00:11:09;16.10;;;8.33;;
8161;SDS011;16778;48.154;15.094;2023-12-28T00:13:35;13.80;;;8.10;;
8161;SDS011;16778;48.154;15.094;2023-12-28T00:16:01;16.47;;;8.10;;
8161;SDS011;16778;48.154;15.094;2023-12-28T00:18:26;15.67;;;8.20;;
8161;SDS011;16778;48.154;15.094;2023-12-28T00:20:52;13.33;;;8.03;;
8161;SDS011;16778;48.154;15.094;2023-12-28T00:23:18;10.67;;;7.60;;
8161;SDS011;16778;48.154;15.094;2023-12-28T00:25:45;14.17;;;7.90;;
8161;SDS011;16778;48.154;15.094;2023-12-28T00:28:11;15.57;;;8.07;;
8161;SDS011;16778;48.154;15.094;2023-12-28T00:30:37;18.13;;;8.60;;
8161;SDS011;16778;48.154;15.094;2023-12-28T00:33:03;22.17;;;8.70;;
8161;SDS011;16778;48.154;15.094;2023-12-28T00:35:29;14.60;;;7.93;;
8161;SDS011;16778;48.154;15.094;2023-12-28T00:37:55;14.23;;;7.63;;
8161;SDS011;16778;48.154;15.094;2023-12-28T00:40:21;14.00;;;7.87;;
8161;SDS011;16778;48.154;15.094;2023-12-28T00:42:47;14.07;;;8.13;;
8161;SDS011;16778;48.154;15.094;2023-12-28T00:45:13;15.33;;;7.87;;
8161;SDS011;16778;48.154;15.094;2023-12-28T00:47:39;13.20;;;8.60;;
8161;SDS011;16778;48.154;15.094;2023-12-28T00:50:08;14.37;;;7.67;;
8161;SDS011;16778;48.154;15.094;2023-12-28T00:52:36;13.23;;;7.20;;
8161;SDS011;16778;48.154;15.094;2023-12-28T00:55:03;12.40;;;7.80;;
8161;SDS011;16778;48.154;15.094;2023-12-28T00:57:29;12.53;;;7.57;;
8161;SDS011;16778;48.154;15.094;2023-12-28T00:59:55;17.23;;;7.60;;
8161;SDS011;16778;48.154;15.094;2023-12-28T01:02:21;11.57;;;7.73;;
8161;SDS011;16778;48.154;15.094;2023-12-28T01:04:47;15.53;;;8.53;;
8161;SDS011;16778;48.154;15.094;2023-12-28T01:07:13;17.03;;;8.00;;
8161;SDS011;16778;48.154;15.094;2023-12-28T01:09:39;16.13;;;7.77;;
8161;SDS011;16778;48.154;15.094;2023-12-28T01:12:04;13.70;;;7.47;;
8161;SDS011;16778;48.154;15.094;2023-12-28T01:14:31;12.53;;;8.27;;
8161;SDS011;16778;48.154;15.094;2023-12-28T01:16:57;15.60;;;8.03;;
8161;SDS011;16778;48.154;15.094;2023-12-28T01:19:23;14.77;;;7.43;;
8161;SDS011;16778;48.154;15.094;2023-12-28T01:21:49;11.30;;;7.77;;
8161;SDS011;16778;48.154;15.094;2023-12-28T01:24:15;13.37;;;7.77;;
8161;SDS011;16778;48.154;15.094;2023-12-28T01:26:41;14.73;;;7.83;;
8161;SDS011;16778;48.154;15.094;2023-12-28T01:29:07;13.73;;;8.13;;
8161;SDS011;16778;48.154;15.094;2023-12-28T01:31:33;14.75;;;7.55;;
8161;SDS011;16778;48.154;15.094;2023-12-28T01:33:59;17.53;;;8.20;;
8161;SDS011;16778;48.154;15.094;2023-12-28T01:36:25;14.80;;;8.40;;
8161;SDS011;16778;48.154;15.094;2023-12-28T01:38:51;14.07;;;8.30;;
8161;SDS011;16778;48.154;15.094;2023-12-28T01:41:17;13.93;;;7.40;;
8161;SDS011;16778;48.154;15.094;2023-12-28T01:43:43;14.07;;;8.03;;
8161;SDS011;16778;48.154;15.094;2023-12-28T01:46:16;16.70;;;8.73;;
8161;SDS011;16778;48.154;15.094;2023-12-28T01:48:45;17.40;;;8.23;;
8161;SDS011;16778;48.154;15.094;2023-12-28T01:51:14;12.05;;;8.20;;
8161;SDS011;16778;48.154;15.094;2023-12-28T01:53:41;13.13;;;7.90;;
8161;SDS011;16778;48.154;15.094;2023-12-28T01:56:09;17.13;;;7.93;;
8161;SDS011;16778;48.154;15.094;2023-12-28T01:58:35;15.53;;;8.47;;
8161;SDS011;16778;48.154;15.094;2023-12-28T02:01:05;13.63;;;8.67;;
8161;SDS011;16778;48.154;15.094;2023-12-28T02:03:31;13.77;;;8.17;;
8161;SDS011;16778;48.154;15.094;2023-12-28T02:05:58;17.07;;;7.83;;
8161;SDS011;16778;48.154;15.094;2023-12-28T02:08:25;13.60;;;8.07;;
8161;SDS011;16778;48.154;15.094;2023-12-28T02:10:51;15.27;;;8.90;;
8161;SDS011;16778;48.154;15.094;2023-12-28T02:13:17;19.10;;;8.20;;
8161;SDS011;16778;48.154;15.094;2023-12-28T02:15:43;20.00;;;8.67;;
8161;SDS011;16778;48.154;15.094;2023-12-28T02:18:17;13.20;;;7.90;;
8161;SDS011;16778;48.154;15.094;2023-12-28T02:20:48;15.57;;;8.00;;
8161;SDS011;16778;48.154;15.094;2023-12-28T02:23:16;23.97;;;8.90;;
8161;SDS011;16778;48.154;15.094;2023-12-28T02:25:41;41.50;;;10.87;;
8161;SDS011;16778;48.154;15.094;2023-12-28T02:28:07;36.77;;;9.60;;
8161;SDS011;16778;48.154;15.094;2023-12-28T02:30:34;62.80;;;12.10;;
8161;SDS011;16778;48.154;15.094;2023-12-28T02:38:36;47.83;;;10.93;;
8161;SDS011;16778;48.154;15.094;2023-12-28T02:41:04;73.57;;;10.53;;
8161;SDS011;16778;48.154;15.094;2023-12-28T02:43:30;84.80;;;13.83;;
8161;SDS011;16778;48.154;15.094;2023-12-28T02:45:58;61.87;;;12.80;;
8161;SDS011;16778;48.154;15.094;2023-12-28T02:48:24;71.83;;;11.20;;
8161;SDS011;16778;48.154;15.094;2023-12-28T02:50:50;76.87;;;11.43;;
8161;SDS011;16778;48.154;15.094;2023-12-28T02:53:17;54.70;;;10.93;;
8161;SDS011;16778;48.154;15.094;2023-12-28T02:55:43;74.90;;;11.67;;
8161;SDS011;16778;48.154;15.094;2023-12-28T02:58:09;37.97;;;9.67;;
8161;SDS011;16778;48.154;15.094;2023-12-28T03:00:34;65.03;;;10.77;;
8161;SDS011;16778;48.154;15.094;2023-12-28T03:03:00;52.80;;;10.63;;
8161;SDS011;16778;48.154;15.094;2023-12-28T03:05:26;28.37;;;10.53;;
8161;SDS011;16778;48.154;15.094;2023-12-28T03:07:52;15.83;;;9.07;;
8161;SDS011;16778;48.154;15.094;2023-12-28T03:10:20;17.33;;;9.60;;
8161;SDS011;16778;48.154;15.094;2023-12-28T03:12:46;26.30;;;9.03;;
8161;SDS011;16778;48.154;15.094;2023-12-28T03:15:12;17.73;;;8.93;;
8161;SDS011;16778;48.154;15.094;2023-12-28T03:17:38;20.70;;;9.97;;
8161;SDS011;16778;48.154;15.094;2023-12-28T03:20:04;28.83;;;9.43;;
8161;SDS011;16778;48.154;15.094;2023-12-28T03:22:31;22.20;;;9.43;;
8161;SDS011;16778;48.154;15.094;2023-12-28T03:24:57;19.57;;;9.43;;
8161;SDS011;16778;48.154;15.094;2023-12-28T03:27:23;23.27;;;9.27;;
8161;SDS011;16778;48.154;15.094;2023-12-28T03:29:48;22.60;;;9.67;;
8161;SDS011;16778;48.154;15.094;2023-12-28T03:32:14;15.20;;;8.77;;
8161;SDS011;16778;48.154;15.094;2023-12-28T03:34:40;14.23;;;8.70;;
8161;SDS011;16778;48.154;15.094;2023-12-28T03:37:06;16.87;;;8.97;;
8161;SDS011;16778;48.154;15.094;2023-12-28T03:39:32;17.13;;;9.53;;
8161;SDS011;16778;48.154;15.094;2023-12-28T03:41:59;15.87;;;9.03;;
8161;SDS011;16778;48.154;15.094;2023-12-28T03:44:24;18.33;;;9.67;;
8161;SDS011;16778;48.154;15.094;2023-12-28T03:46:50;19.03;;;10.07;;
8161;SDS011;16778;48.154;15.094;2023-12-28T03:49:17;18.10;;;9.80;;
8161;SDS011;16778;48.154;15.094;2023-12-28T03:51:44;16.60;;;11.00;;
8161;SDS011;16778;48.154;15.094;2023-12-28T03:54:11;15.60;;;10.20;;
8161;SDS011;16778;48.154;15.094;2023-12-28T03:56:37;16.27;;;10.33;;
8161;SDS011;16778;48.154;15.094;2023-12-28T03:59:08;20.90;;;10.83;;
8161;SDS011;16778;48.154;15.094;2023-12-28T04:01:34;18.23;;;10.43;;
8161;SDS011;16778;48.154;15.094;2023-12-28T04:04:01;15.47;;;9.60;;
8161;SDS011;16778;48.154;15.094;2023-12-28T04:06:27;18.53;;;8.73;;
8161;SDS011;16778;48.154;15.094;2023-12-28T04:08:53;14.53;;;9.27;;
8161;SDS011;16778;48.154;15.094;2023-12-28T04:11:19;12.03;;;7.33;;
8161;SDS011;16778;48.154;15.094;2023-12-28T04:13:44;13.40;;;8.73;;
8161;SDS011;16778;48.154;15.094;2023-12-28T04:16:14;11.67;;;8.07;;
8161;SDS011;16778;48.154;15.094;2023-12-28T04:18:43;12.63;;;8.77;;
8161;SDS011;16778;48.154;15.094;2023-12-28T04:21:10;13.97;;;7.87;;
8161;SDS011;16778;48.154;15.094;2023-12-28T04:23:38;12.40;;;6.40;;
8161;SDS011;16778;48.154;15.094;2023-12-28T04:26:05;11.03;;;7.37;;
8161;SDS011;16778;48.154;15.094;2023-12-28T04:28:31;13.77;;;6.73;;
8161;SDS011;16778;48.154;15.094;2023-12-28T04:31:01;12.57;;;7.20;;
8161;SDS011;16778;48.154;15.094;2023-12-28T04:33:30;14.93;;;7.03;;
8161;SDS011;16778;48.154;15.094;2023-12-28T04:35:57;11.40;;;6.80;;
8161;SDS011;16778;48.154;15.094;2023-12-28T04:38:25;13.80;;;8.10;;
8161;SDS011;16778;48.154;15.094;2023-12-28T04:40:51;14.07;;;7.40;;
8161;SDS011;16778;48.154;15.094;2023-12-28T04:43:17;11.17;;;6.63;;
8161;SDS011;16778;48.154;15.094;2023-12-28T04:45:43;11.23;;;7.37;;
8161;SDS011;16778;48.154;15.094;2023-12-28T04:48:09;14.90;;;7.37;;
8161;SDS011;16778;48.154;15.094;2023-12-28T04:50:35;11.27;;;7.67;;
8161;SDS011;16778;48.154;15.094;2023-12-28T04:53:00;11.57;;;7.83;;
8161;SDS011;16778;48.154;15.094;2023-12-28T04:55:26;13.73;;;7.67;;
8161;SDS011;16778;48.154;15.094;2023-12-28T04:57:52;10.70;;;6.87;;
8161;SDS011;16778;48.154;15.094;2023-12-28T05:00:18;11.57;;;6.87;;
8161;SDS011;16778;48.154;15.094;2023-12-28T05:02:43;12.40;;;6.83;;
8161;SDS011;16778;48.154;15.094;2023-12-28T05:05:11;11.70;;;7.30;;
8161;SDS011;16778;48.154;15.094;2023-12-28T05:07:37;13.53;;;7.87;;
8161;SDS011;16778;48.154;15.094;2023-12-28T05:10:04;11.73;;;7.57;;
8161;SDS011;16778;48.154;15.094;2023-12-28T05:12:30;11.80;;;7.30;;
8161;SDS011;16778;48.154;15.094;2023-12-28T05:14:56;12.60;;;7.07;;
8161;SDS011;16778;48.154;15.094;2023-12-28T05:17:22;12.87;;;7.87;;
8161;SDS011;16778;48.154;15.094;2023-12-28T05:19:48;13.23;;;7.07;;
8161;SDS011;16778;48.154;15.094;2023-12-28T05:22:13;9.97;;;7.17;;
8161;SDS011;16778;48.154;15.094;2023-12-28T05:24:39;11.27;;;7.73;;
8161;SDS011;16778;48.154;15.094;2023-12-28T05:27:05;10.13;;;6.97;;
8161;SDS011;16778;48.154;15.094;2023-12-28T05:29:31;14.30;;;8.47;;
8161;SDS011;16778;48.154;15.094;2023-12-28T05:31:56;14.57;;;8.47;;
8161;SDS011;16778;48.154;15.094;2023-12-28T05:34:22;12.77;;;8.33;;
8161;SDS011;16778;48.154;15.094;2023-12-28T05:36:48;13.67;;;8.07;;
8161;SDS011;16778;48.154;15.094;2023-12-28T05:39:14;12.83;;;8.50;;
8161;SDS011;16778;48.154;15.094;2023-12-28T05:41:40;15.10;;;9.17;;
8161;SDS011;16778;48.154;15.094;2023-12-28T05:44:06;15.70;;;9.23;;
8161;SDS011;16778;48.154;15.094;2023-12-28T05:46:32;17.43;;;9.90;;
8161;SDS011;16778;48.154;15.094;2023-12-28T05:48:57;14.60;;;9.53;;
8161;SDS011;16778;48.154;15.094;2023-12-28T05:51:23;13.50;;;8.83;;
8161;SDS011;16778;48.154;15.094;2023-12-28T05:53:49;14.03;;;9.80;;
8161;SDS011;16778;48.154;15.094;2023-12-28T05:56:17;16.40;;;9.80;;
8161;SDS011;16778;48.154;15.094;2023-12-28T05:58:42;19.47;;;10.37;;
8161;SDS011;16778;48.154;15.094;2023-12-28T06:01:08;21.27;;;10.47;;
8161;SDS011;16778;48.154;15.094;2023-12-28T06:03:34;12.87;;;9.53;;
8161;SDS011;16778;48.154;15.094;2023-12-28T06:06:00;15.57;;;10.17;;
8161;SDS011;16778;48.154;15.094;2023-12-28T06:08:26;15.50;;;10.40;;
8161;SDS011;16778;48.154;15.094;2023-12-28T06:10:51;15.73;;;10.60;;
8161;SDS011;16778;48.154;15.094;2023-12-28T06:13:17;19.43;;;11.83;;
8161;SDS011;16778;48.154;15.094;2023-12-28T06:15:43;22.50;;;12.70;;
8161;SDS011;16778;48.154;15.094;2023-12-28T06:18:09;20.90;;;12.97;;
8161;SDS011;16778;48.154;15.094;2023-12-28T06:20:35;18.23;;;11.77;;
8161;SDS011;16778;48.154;15.094;2023-12-28T06:23:01;18.03;;;11.73;;
8161;SDS011;16778;48.154;15.094;2023-12-28T06:25:27;14.97;;;10.63;;
8161;SDS011;16778;48.154;15.094;2023-12-28T06:27:53;15.60;;;11.27;;
8161;SDS011;16778;48.154;15.094;2023-12-28T06:30:19;21.60;;;11.43;;
8161;SDS011;16778;48.154;15.094;2023-12-28T06:32:45;16.43;;;11.03;;
8161;SDS011;16778;48.154;15.094;2023-12-28T06:35:10;15.73;;;11.03;;
8161;SDS011;16778;48.154;15.094;2023-12-28T06:37:36;14.60;;;10.33;;
8161;SDS011;16778;48.154;15.094;2023-12-28T06:40:02;15.43;;;9.47;;
8161;SDS011;16778;48.154;15.094;2023-12-28T06:42:28;14.60;;;9.63;;
8161;SDS011;16778;48.154;15.094;2023-12-28T06:44:54;14.80;;;9.63;;
8161;SDS011;16778;48.154;15.094;2023-12-28T06:47:20;14.10;;;9.30;;
8161;SDS011;16778;48.154;15.094;2023-12-28T06:49:46;14.27;;;8.97;;
8161;SDS011;16778;48.154;15.094;2023-12-28T06:52:11;14.70;;;8.83;;
8161;SDS011;16778;48.154;15.094;2023-12-28T06:54:37;14.93;;;8.80;;
8161;SDS011;16778;48.154;15.094;2023-12-28T06:57:03;15.23;;;8.17;;
8161;SDS011;16778;48.154;15.094;2023-12-28T06:59:29;11.43;;;7.43;;
8161;SDS011;16778;48.154;15.094;2023-12-28T07:01:55;12.47;;;8.40;;
8161;SDS011;16778;48.154;15.094;2023-12-28T07:04:20;17.03;;;8.67;;
8161;SDS011;16778;48.154;15.094;2023-12-28T07:06:46;12.20;;;7.97;;
8161;SDS011;16778;48.154;15.094;2023-12-28T07:09:12;12.33;;;7.77;;
8161;SDS011;16778;48.154;15.094;2023-12-28T07:11:38;17.33;;;8.80;;
8161;SDS011;16778;48.154;15.094;2023-12-28T07:14:03;16.70;;;9.10;;
8161;SDS011;16778;48.154;15.094;2023-12-28T07:16:29;13.93;;;8.30;;
8161;SDS011;16778;48.154;15.094;2023-12-28T07:18:55;14.03;;;8.17;;
8161;SDS011;16778;48.154;15.094;2023-12-28T07:21:21;16.10;;;8.20;;
8161;SDS011;16778;48.154;15.094;2023-12-28T07:23:47;9.70;;;6.63;;
8161;SDS011;16778;48.154;15.094;2023-12-28T07:26:14;14.73;;;7.60;;
8161;SDS011;16778;48.154;15.094;2023-12-28T07:28:40;15.67;;;9.27;;
8161;SDS011;16778;48.154;15.094;2023-12-28T07:31:21;14.97;;;9.07;;
8161;SDS011;16778;48.154;15.094;2023-12-28T07:33:51;15.90;;;8.67;;
8161;SDS011;16778;48.154;15.094;2023-12-28T07:36:17;16.57;;;9.27;;
8161;SDS011;16778;48.154;15.094;2023-12-28T07:38:43;13.50;;;8.97;;
8161;SDS011;16778;48.154;15.094;2023-12-28T07:41:09;15.80;;;8.60;;
8161;SDS011;16778;48.154;15.094;2023-12-28T07:43:35;12.87;;;8.07;;
8161;SDS011;16778;48.154;15.094;2023-12-28T07:46:01;12.03;;;8.37;;
8161;SDS011;16778;48.154;15.094;2023-12-28T07:48:28;19.63;;;8.40;;
8161;SDS011;16778;48.154;15.094;2023-12-28T07:50:55;13.67;;;8.57;;
8161;SDS011;16778;48.154;15.094;2023-12-28T07:53:22;15.53;;;8.23;;
8161;SDS011;16778;48.154;15.094;2023-12-28T07:55:48;18.23;;;8.97;;
8161;SDS011;16778;48.154;15.094;2023-12-28T07:58:14;14.50;;;8.90;;
8161;SDS011;16778;48.154;15.094;2023-12-28T08:00:40;12.70;;;8.17;;
8161;SDS011;16778;48.154;15.094;2023-12-28T08:03:06;12.97;;;8.47;;
8161;SDS011;16778;48.154;15.094;2023-12-28T08:05:32;15.17;;;8.87;;
8161;SDS011;16778;48.154;15.094;2023-12-28T08:07:57;13.83;;;8.57;;
8161;SDS011;16778;48.154;15.094;2023-12-28T08:10:23;13.80;;;8.10;;
8161;SDS011;16778;48.154;15.094;2023-12-28T08:12:49;18.30;;;9.13;;
8161;SDS011;16778;48.154;15.094;2023-12-28T08:15:15;15.43;;;9.07;;
8161;SDS011;16778;48.154;15.094;2023-12-28T08:17:41;14.43;;;8.20;;
8161;SDS011;16778;48.154;15.094;2023-12-28T08:20:07;16.27;;;8.53;;
8161;SDS011;16778;48.154;15.094;2023-12-28T08:22:33;17.47;;;8.43;;
8161;SDS011;16778;48.154;15.094;2023-12-28T08:24:59;15.23;;;8.57;;
8161;SDS011;16778;48.154;15.094;2023-12-28T08:27:25;13.97;;;9.27;;
8161;SDS011;16778;48.154;15.094;2023-12-28T08:29:50;15.87;;;8.87;;
8161;SDS011;16778;48.154;15.094;2023-12-28T08:32:16;11.80;;;8.07;;
8161;SDS011;16778;48.154;15.094;2023-12-28T08:34:42;12.00;;;7.53;;
8161;SDS011;16778;48.154;15.094;2023-12-28T08:37:08;15.03;;;8.20;;
8161;SDS011;16778;48.154;15.094;2023-12-28T08:39:34;14.13;;;8.40;;
8161;SDS011;16778;48.154;15.094;2023-12-28T08:42:00;12.93;;;8.00;;
8161;SDS011;16778;48.154;15.094;2023-12-28T08:44:26;14.43;;;7.87;;
8161;SDS011;16778;48.154;15.094;2023-12-28T08:46:52;11.20;;;6.93;;
8161;SDS011;16778;48.154;15.094;2023-12-28T08:49:18;15.23;;;7.77;;
8161;SDS011;16778;48.154;15.094;2023-12-28T08:51:43;12.63;;;8.00;;
8161;SDS011;16778;48.154;15.094;2023-12-28T08:54:09;11.20;;;7.50;;
8161;SDS011;16778;48.154;15.094;2023-12-28T08:56:35;14.63;;;7.30;;
8161;SDS011;16778;48.154;15.094;2023-12-28T08:59:01;10.70;;;7.40;;
8161;SDS011;16778;48.154;15.094;2023-12-28T09:01:28;13.80;;;8.33;;
8161;SDS011;16778;48.154;15.094;2023-12-28T09:03:54;13.63;;;8.03;;
8161;SDS011;16778;48.154;15.094;2023-12-28T09:06:21;12.07;;;8.03;;
8161;SDS011;16778;48.154;15.094;2023-12-28T09:08:51;17.43;;;7.80;;
8161;SDS011;16778;48.154;15.094;2023-12-28T09:11:17;13.87;;;8.10;;
8161;SDS011;16778;48.154;15.094;2023-12-28T09:13:44;15.37;;;8.40;;
8161;SDS011;16778;48.154;15.094;2023-12-28T09:16:11;12.33;;;7.60;;
8161;SDS011;16778;48.154;15.094;2023-12-28T09:18:38;11.23;;;7.70;;
8161;SDS011;16778;48.154;15.094;2023-12-28T09:21:05;13.33;;;7.60;;
8161;SDS011;16778;48.154;15.094;2023-12-28T09:23:33;12.37;;;7.63;;
8161;SDS011;16778;48.154;15.094;2023-12-28T09:26:00;11.57;;;7.60;;
8161;SDS011;16778;48.154;15.094;2023-12-28T09:28:30;11.80;;;7.43;;
8161;SDS011;16778;48.154;15.094;2023-12-28T09:30:58;12.10;;;7.30;;
8161;SDS011;16778;48.154;15.094;2023-12-28T09:33:24;12.87;;;7.53;;
8161;SDS011;16778;48.154;15.094;2023-12-28T09:35:50;14.37;;;7.63;;
8161;SDS011;16778;48.154;15.094;2023-12-28T09:38:19;12.33;;;7.30;;
8161;SDS011;16778;48.154;15.094;2023-12-28T09:40:45;12.60;;;7.83;;
8161;SDS011;16778;48.154;15.094;2023-12-28T09:43:23;9.30;;;6.40;;
8161;SDS011;16778;48.154;15.094;2023-12-28T09:45:51;10.77;;;7.53;;
8161;SDS011;16778;48.154;15.094;2023-12-28T09:48:19;12.30;;;7.47;;
8161;SDS011;16778;48.154;15.094;2023-12-28T09:50:50;12.37;;;7.43;;
8161;SDS011;16778;48.154;15.094;2023-12-28T09:53:20;12.33;;;7.43;;
8161;SDS011;16778;48.154;15.094;2023-12-28T09:55:49;9.50;;;6.33;;
8161;SDS011;16778;48.154;15.094;2023-12-28T09:58:19;11.53;;;6.83;;
8161;SDS011;16778;48.154;15.094;2023-12-28T10:00:47;10.87;;;6.83;;
8161;SDS011;16778;48.154;15.094;2023-12-28T10:03:17;13.93;;;7.83;;
8161;SDS011;16778;48.154;15.094;2023-12-28T10:05:44;13.10;;;6.73;;
8161;SDS011;16778;48.154;15.094;2023-12-28T10:08:11;13.07;;;7.50;;
8161;SDS011;16778;48.154;15.094;2023-12-28T10:10:39;12.73;;;6.50;;
8161;SDS011;16778;48.154;15.094;2023-12-28T10:13:15;10.57;;;6.73;;
8161;SDS011;16778;48.154;15.094;2023-12-28T10:15:42;12.03;;;6.27;;
8161;SDS011;16778;48.154;15.094;2023-12-28T10:18:09;10.93;;;6.50;;
8161;SDS011;16778;48.154;15.094;2023-12-28T10:20:35;10.87;;;6.90;;
8161;SDS011;16778;48.154;15.094;2023-12-28T10:23:01;10.17;;;6.63;;
8161;SDS011;16778;48.154;15.094;2023-12-28T10:25:27;14.83;;;6.67;;
8161;SDS011;16778;48.154;15.094;2023-12-28T10:27:55;16.30;;;6.53;;
8161;SDS011;16778;48.154;15.094;2023-12-28T10:30:21;11.40;;;6.83;;
8161;SDS011;16778;48.154;15.094;2023-12-28T10:32:47;13.97;;;6.57;;
8161;SDS011;16778;48.154;15.094;2023-12-28T10:35:13;9.10;;;6.23;;
8161;SDS011;16778;48.154;15.094;2023-12-28T10:37:40;11.80;;;6.60;;
8161;SDS011;16778;48.154;15.094;2023-12-28T10:40:07;19.63;;;6.70;;
8161;SDS011;16778;48.154;15.094;2023-12-28T10:42:43;10.70;;;5.93;;
8161;SDS011;16778;48.154;15.094;2023-12-28T10:45:14;8.97;;;4.70;;
8161;SDS011;16778;48.154;15.094;2023-12-28T10:47:47;10.73;;;5.17;;
8161;SDS011;16778;48.154;15.094;2023-12-28T10:50:51;8.97;;;5.27;;
8161;SDS011;16778;48.154;15.094;2023-12-28T10:56:14;8.27;;;4.90;;
8161;SDS011;16778;48.154;15.094;2023-12-28T10:59:12;8.17;;;4.13;;
8161;SDS011;16778;48.154;15.094;2023-12-28T11:02:14;7.40;;;4.83;;
8161;SDS011;16778;48.154;15.094;2023-12-28T11:04:48;12.37;;;4.87;;
8161;SDS011;16778;48.154;15.094;2023-12-28T11:07:16;8.47;;;4.93;;
8161;SDS011;16778;48.154;15.094;2023-12-28T11:09:44;8.17;;;5.20;;
8161;SDS011;16778;48.154;15.094;2023-12-28T11:12:10;8.60;;;4.97;;
8161;SDS011;16778;48.154;15.094;2023-12-28T11:14:40;9.43;;;5.10;;
8161;SDS011;16778;48.154;15.094;2023-12-28T11:17:07;11.90;;;4.57;;
8161;SDS011;16778;48.154;15.094;2023-12-28T11:19:36;13.33;;;4.60;;
8161;SDS011;16778;48.154;15.094;2023-12-28T11:22:03;5.67;;;4.30;;
8161;SDS011;16778;48.154;15.094;2023-12-28T11:24:30;7.67;;;5.23;;
8161;SDS011;16778;48.154;15.094;2023-12-28T11:26:57;6.93;;;4.47;;
8161;SDS011;16778;48.154;15.094;2023-12-28T11:29:23;7.77;;;3.80;;
8161;SDS011;16778;48.154;15.094;2023-12-28T11:31:53;7.97;;;4.17;;
8161;SDS011;16778;48.154;15.094;2023-12-28T11:34:25;6.53;;;4.53;;
8161;SDS011;16778;48.154;15.094;2023-12-28T11:36:53;8.07;;;4.50;;
8161;SDS011;16778;48.154;15.094;2023-12-28T11:39:39;7.47;;;4.23;;
8161;SDS011;16778;48.154;15.094;2023-12-28T11:42:08;7.03;;;4.10;;
8161;SDS011;16778;48.154;15.094;2023-12-28T11:47:13;6.17;;;4.10;;
8161;SDS011;16778;48.154;15.094;2023-12-28T11:49:40;7.30;;;4.07;;
8161;SDS011;16778;48.154;15.094;2023-12-28T11:52:06;9.17;;;4.07;;
8161;SDS011;16778;48.154;15.094;2023-12-28T11:54:34;13.43;;;3.97;;
8161;SDS011;16778;48.154;15.094;2023-12-28T11:57:00;5.47;;;3.33;;
8161;SDS011;16778;48.154;15.094;2023-12-28T11:59:26;4.97;;;3.00;;
8161;SDS011;16778;48.154;15.094;2023-12-28T12:01:52;6.33;;;3.23;;
8161;SDS011;16778;48.154;15.094;2023-12-28T12:04:21;7.73;;;3.40;;
8161;SDS011;16778;48.154;15.094;2023-12-28T12:06:47;6.33;;;3.00;;
8161;SDS011;16778;48.154;15.094;2023-12-28T12:09:14;4.90;;;3.10;;
8161;SDS011;16778;48.154;15.094;2023-12-28T12:11:40;10.03;;;3.70;;
8161;SDS011;16778;48.154;15.094;2023-12-28T12:14:09;5.37;;;3.33;;
8161;SDS011;16778;48.154;15.094;2023-12-28T12:16:36;6.33;;;3.13;;
8161;SDS011;16778;48.154;15.094;2023-12-28T12:19:06;6.13;;;2.83;;
8161;SDS011;16778;48.154;15.094;2023-12-28T12:21:33;6.87;;;2.97;;
8161;SDS011;16778;48.154;15.094;2023-12-28T12:23:59;6.70;;;2.83;;
8161;SDS011;16778;48.154;15.094;2023-12-28T12:26:26;8.20;;;3.13;;
8161;SDS011;16778;48.154;15.094;2023-12-28T12:28:56;3.90;;;2.33;;
8161;SDS011;16778;48.154;15.094;2023-12-28T12:31:22;5.10;;;2.93;;
8161;SDS011;16778;48.154;15.094;2023-12-28T12:33:51;6.47;;;3.50;;
8161;SDS011;16778;48.154;15.094;2023-12-28T12:36:17;8.17;;;3.20;;
8161;SDS011;16778;48.154;15.094;2023-12-28T12:38:43;5.97;;;3.00;;
8161;SDS011;16778;48.154;15.094;2023-12-28T12:41:12;5.10;;;3.40;;
8161;SDS011;16778;48.154;15.094;2023-12-28T12:43:38;7.97;;;3.37;;
8161;SDS011;16778;48.154;15.094;2023-12-28T12:46:06;5.43;;;3.43;;
8161;SDS011;16778;48.154;15.094;2023-12-28T12:48:32;8.43;;;3.57;;
8161;SDS011;16778;48.154;15.094;2023-12-28T12:50:57;6.43;;;3.87;;
8161;SDS011;16778;48.154;15.094;2023-12-28T12:53:32;4.60;;;3.40;;
8161;SDS011;16778;48.154;15.094;2023-12-28T12:56:04;5.07;;;3.40;;
8161;SDS011;16778;48.154;15.094;2023-12-28T12:58:30;6.20;;;4.13;;
8161;SDS011;16778;48.154;15.094;2023-12-28T13:00:56;5.87;;;3.70;;
8161;SDS011;16778;48.154;15.094;2023-12-28T13:03:27;5.47;;;3.60;;
8161;SDS011;16778;48.154;15.094;2023-12-28T13:05:55;6.20;;;3.40;;
8161;SDS011;16778;48.154;15.094;2023-12-28T13:08:21;5.30;;;3.30;;
8161;SDS011;16778;48.154;15.094;2023-12-28T13:10:47;7.23;;;3.50;;
8161;SDS011;16778;48.154;15.094;2023-12-28T13:13:14;5.30;;;3.63;;
8161;SDS011;16778;48.154;15.094;2023-12-28T13:15:41;6.87;;;3.83;;
8161;SDS011;16778;48.154;15.094;2023-12-28T13:18:06;10.17;;;4.20;;
8161;SDS011;16778;48.154;15.094;2023-12-28T13:20:32;5.67;;;3.30;;
8161;SDS011;16778;48.154;15.094;2023-12-28T13:22:58;7.77;;;3.80;;
8161;SDS011;16778;48.154;15.094;2023-12-28T13:25:24;6.70;;;3.87;;
8161;SDS011;16778;48.154;15.094;2023-12-28T13:27:50;6.80;;;3.27;;
8161;SDS011;16778;48.154;15.094;2023-12-28T13:30:16;7.27;;;4.20;;
8161;SDS011;16778;48.154;15.094;2023-12-28T13:32:41;8.03;;;3.17;;
8161;SDS011;16778;48.154;15.094;2023-12-28T13:35:07;6.60;;;3.40;;
8161;SDS011;16778;48.154;15.094;2023-12-28T13:37:34;5.43;;;3.10;;
8161;SDS011;16778;48.154;15.094;2023-12-28T13:40:00;5.93;;;3.50;;
8161;SDS011;16778;48.154;15.094;2023-12-28T13:42:26;6.40;;;2.97;;
8161;SDS011;16778;48.154;15.094;2023-12-28T13:44:52;6.37;;;2.90;;
8161;SDS011;16778;48.154;15.094;2023-12-28T13:47:17;4.60;;;3.20;;
8161;SDS011;16778;48.154;15.094;2023-12-28T13:49:43;5.33;;;3.17;;
8161;SDS011;16778;48.154;15.094;2023-12-28T13:52:09;7.40;;;3.00;;
8161;SDS011;16778;48.154;15.094;2023-12-28T13:54:35;5.43;;;3.30;;
8161;SDS011;16778;48.154;15.094;2023-12-28T13:57:01;4.47;;;2.80;;
8161;SDS011;16778;48.154;15.094;2023-12-28T13:59:26;7.33;;;2.97;;
8161;SDS011;16778;48.154;15.094;2023-12-28T14:01:52;4.90;;;3.17;;
8161;SDS011;16778;48.154;15.094;2023-12-28T14:04:18;5.17;;;2.80;;
8161;SDS011;16778;48.154;15.094;2023-12-28T14:06:44;4.57;;;2.90;;
8161;SDS011;16778;48.154;15.094;2023-12-28T14:09:10;5.40;;;2.50;;
8161;SDS011;16778;48.154;15.094;2023-12-28T14:11:37;5.53;;;3.00;;
8161;SDS011;16778;48.154;15.094;2023-12-28T14:14:03;7.30;;;2.83;;
8161;SDS011;16778;48.154;15.094;2023-12-28T14:16:28;3.57;;;2.70;;
8161;SDS011;16778;48.154;15.094;2023-12-28T14:18:54;6.33;;;2.93;;
8161;SDS011;16778;48.154;15.094;2023-12-28T14:21:20;6.10;;;3.40;;
8161;SDS011;16778;48.154;15.094;2023-12-28T14:23:46;4.50;;;2.70;;
8161;SDS011;16778;48.154;15.094;2023-12-28T14:26:13;5.57;;;3.03;;
8161;SDS011;16778;48.154;15.094;2023-12-28T14:28:42;7.77;;;2.87;;
8161;SDS011;16778;48.154;15.094;2023-12-28T14:31:09;5.50;;;3.40;;
8161;SDS011;16778;48.154;15.094;2023-12-28T14:33:36;5.50;;;3.13;;
8161;SDS011;16778;48.154;15.094;2023-12-28T14:36:05;6.20;;;3.27;;
8161;SDS011;16778;48.154;15.094;2023-12-28T14:38:48;8.43;;;3.37;;
8161;SDS011;16778;48.154;15.094;2023-12-28T14:41:14;7.13;;;3.23;;
8161;SDS011;16778;48.154;15.094;2023-12-28T14:43:40;5.27;;;3.20;;
8161;SDS011;16778;48.154;15.094;2023-12-28T14:46:06;6.07;;;3.20;;